createdAt,value
2022-12-15T00:00:24.530Z,34.72
2022-12-15T00:01:17.694Z,35.60
2022-12-15T00:02:08.727Z,37.03
2022-12-15T00:02:58.871Z,36.75
2022-12-15T00:03:49.090Z,36.92
2022-12-15T00:04:39.060Z,36.28
2022-12-15T00:05:29.372Z,39.10
2022-12-15T00:06:19.586Z,34.05
2022-12-15T00:07:09.451Z,36.65
2022-12-15T00:07:59.174Z,38.95
2022-12-15T00:08:49.093Z,36.55
2022-12-15T00:09:39.587Z,31.92
2022-12-15T00:10:29.321Z,37.83
2022-12-15T00:11:20.693Z,37.20
2022-12-15T00:12:11.020Z,36.55
2022-12-15T00:13:01.312Z,35.60
2022-12-15T00:13:51.093Z,35.47
2022-12-15T00:14:40.887Z,34.85
2022-12-15T00:15:30.690Z,34.83
2022-12-15T00:16:20.977Z,34.85
2022-12-15T00:17:10.901Z,33.92
2022-12-15T00:18:00.870Z,33.33
2022-12-15T00:18:51.137Z,37.65
2022-12-15T00:19:40.937Z,31.15
2022-12-15T00:20:31.473Z,34.92
2022-12-15T00:21:21.941Z,33.25
2022-12-15T00:22:11.774Z,34.33
2022-12-15T00:23:01.561Z,33.83
2022-12-15T00:23:51.328Z,35.15
2022-12-15T00:24:41.391Z,36.75
2022-12-15T00:25:31.839Z,37.90
2022-12-15T00:26:22.155Z,39.10
2022-12-15T00:27:11.952Z,37.83
2022-12-15T00:28:01.910Z,36.47
2022-12-15T00:28:52.245Z,34.58
2022-12-15T00:29:42.077Z,38.40
2022-12-15T00:30:32.441Z,36.90
2022-12-15T00:31:22.796Z,34.83
2022-12-15T00:32:13.026Z,34.78
2022-12-15T00:33:03.032Z,36.75
2022-12-15T00:33:53.410Z,36.65
2022-12-15T00:34:43.343Z,34.97
2022-12-15T00:35:33.654Z,33.90
2022-12-15T00:36:24.293Z,35.35
2022-12-15T00:37:14.677Z,34.25
2022-12-15T00:38:04.648Z,34.75
2022-12-15T00:38:45.235Z,32.78
2022-12-15T00:39:17.114Z,35.70
2022-12-15T00:39:58.879Z,36.80
2022-12-15T00:40:30.426Z,35.90
2022-12-15T00:41:02.315Z,35.40
2022-12-15T00:41:33.974Z,39.65
2022-12-15T00:42:06.066Z,37.05
2022-12-15T00:42:37.739Z,39.30
2022-12-15T00:43:12.224Z,38.33
2022-12-15T00:43:44.583Z,36.50
2022-12-15T00:44:20.630Z,39.20
2022-12-15T00:44:52.568Z,33.83
2022-12-15T00:45:44.139Z,36.85
2022-12-15T00:46:34.346Z,37.45
2022-12-15T00:47:06.108Z,33.58
2022-12-15T00:47:37.868Z,35.75
2022-12-15T00:48:09.471Z,32.83
2022-12-15T00:48:41.375Z,33.08
2022-12-15T00:49:31.335Z,34.65
2022-12-15T00:50:21.619Z,36.35
2022-12-15T00:50:53.227Z,35.72
2022-12-15T00:51:43.694Z,37.70
2022-12-15T00:52:35.153Z,34.22
2022-12-15T00:53:25.041Z,32.50
2022-12-15T00:54:18.134Z,35.97
2022-12-15T00:55:08.591Z,34.50
2022-12-15T00:55:58.495Z,36.20
2022-12-15T00:56:49.290Z,36.03
2022-12-15T00:57:39.118Z,33.45
2022-12-15T00:58:28.924Z,37.03
2022-12-15T00:59:19.249Z,36.13
2022-12-15T01:00:09.187Z,35.40
2022-12-15T01:00:59.608Z,38.15
2022-12-15T01:01:49.723Z,37.05
2022-12-15T01:02:40.114Z,37.55
2022-12-15T01:03:39.396Z,37.22
2022-12-15T01:04:29.805Z,34.10
2022-12-15T01:05:19.819Z,32.20
2022-12-15T01:06:09.753Z,32.47
2022-12-15T01:07:00.027Z,32.65
2022-12-15T01:07:50.324Z,35.85
2022-12-15T01:08:40.777Z,33.13
2022-12-15T01:09:32.227Z,37.45
2022-12-15T01:10:23.190Z,34.83
2022-12-15T01:11:13.196Z,34.78
2022-12-15T01:12:03.482Z,36.58
2022-12-15T01:12:54.125Z,34.22
2022-12-15T01:13:43.986Z,35.95
2022-12-15T01:14:39.834Z,41.45
2022-12-15T01:15:29.790Z,37.83
2022-12-15T01:16:20.323Z,34.25
2022-12-15T01:17:10.402Z,34.70
2022-12-15T01:18:00.779Z,36.05
2022-12-15T01:18:52.769Z,36.78
2022-12-15T01:19:43.723Z,35.50
2022-12-15T01:20:20.848Z,33.78
2022-12-15T01:21:00.836Z,32.55
2022-12-15T01:21:32.484Z,33.88
2022-12-15T01:22:05.832Z,33.55
2022-12-15T01:22:38.267Z,32.58
2022-12-15T01:23:09.847Z,34.95
2022-12-15T01:23:42.062Z,36.30
2022-12-15T01:24:13.622Z,38.28
2022-12-15T01:24:45.292Z,37.92
2022-12-15T01:25:18.920Z,37.65
2022-12-15T01:25:52.270Z,36.25
2022-12-15T01:26:23.824Z,33.95
2022-12-15T01:26:55.408Z,36.42
2022-12-15T01:27:26.980Z,35.53
2022-12-15T01:27:58.584Z,37.10
2022-12-15T01:28:30.356Z,34.85
2022-12-15T01:29:01.916Z,35.35
2022-12-15T01:29:33.461Z,37.40
2022-12-15T01:30:07.827Z,37.47
2022-12-15T01:30:39.499Z,38.60
2022-12-15T01:31:12.170Z,38.25
2022-12-15T01:31:44.147Z,34.53
2022-12-15T01:32:15.857Z,32.40
2022-12-15T01:32:47.521Z,37.80
2022-12-15T01:33:20.481Z,34.28
2022-12-15T01:33:54.504Z,37.15
2022-12-15T01:34:26.069Z,38.72
2022-12-15T01:34:57.659Z,41.80
2022-12-15T01:35:29.223Z,37.03
2022-12-15T01:36:01.862Z,35.75
2022-12-15T01:36:33.446Z,37.00
2022-12-15T01:37:05.038Z,33.60
2022-12-15T01:37:36.750Z,38.25
2022-12-15T01:38:09.719Z,35.30
2022-12-15T01:38:41.333Z,37.53
2022-12-15T01:39:12.983Z,35.20
2022-12-15T01:40:03.052Z,35.88
2022-12-15T01:40:46.945Z,36.25
2022-12-15T01:41:18.664Z,32.88
2022-12-15T01:41:50.361Z,38.58
2022-12-15T01:42:22.079Z,38.65
2022-12-15T01:42:53.924Z,36.28
2022-12-15T01:43:29.739Z,34.78
2022-12-15T01:44:21.929Z,34.13
2022-12-15T01:44:53.885Z,36.10
2022-12-15T01:45:31.541Z,33.50
2022-12-15T01:46:25.481Z,33.50
2022-12-15T01:46:57.383Z,35.47
2022-12-15T01:47:29.407Z,32.22
2022-12-15T01:48:05.093Z,36.13
2022-12-15T01:48:59.169Z,35.40
2022-12-15T01:49:32.681Z,34.65
2022-12-15T01:50:04.631Z,33.70
2022-12-15T01:51:37.091Z,37.88
2022-12-15T01:52:10.665Z,35.05
2022-12-15T01:52:42.933Z,33.75
2022-12-15T01:53:15.662Z,36.00
2022-12-15T01:53:53.978Z,33.65
2022-12-15T01:54:38.909Z,36.55
2022-12-15T01:55:11.283Z,34.85
2022-12-15T01:55:44.892Z,35.17
2022-12-15T01:56:23.765Z,34.90
2022-12-15T01:57:00.935Z,34.35
2022-12-15T01:57:36.428Z,34.35
2022-12-15T01:58:09.245Z,36.75
2022-12-15T01:58:43.725Z,34.63
2022-12-15T01:59:20.979Z,36.95
2022-12-15T02:00:02.075Z,36.60
2022-12-15T02:01:13.903Z,37.53
2022-12-15T02:01:49.789Z,34.65
2022-12-15T02:02:26.248Z,33.55
2022-12-15T02:03:00.851Z,38.67
2022-12-15T02:03:33.193Z,38.50
2022-12-15T02:04:05.166Z,34.90
2022-12-15T02:04:37.947Z,32.38
2022-12-15T02:05:10.563Z,35.00
2022-12-15T02:05:42.428Z,35.88
2022-12-15T02:06:15.289Z,35.33
2022-12-15T02:06:46.905Z,38.55
2022-12-15T02:07:19.528Z,34.92
2022-12-15T02:07:52.122Z,37.60
2022-12-15T02:08:23.747Z,34.92
2022-12-15T02:08:58.274Z,36.25
2022-12-15T02:09:30.171Z,38.08
2022-12-15T02:10:07.307Z,40.90
2022-12-15T02:11:24.166Z,36.15
2022-12-15T02:12:18.592Z,34.03
2022-12-15T02:12:57.379Z,34.22
2022-12-15T02:13:40.479Z,35.72
2022-12-15T02:14:19.361Z,31.63
2022-12-15T02:15:17.143Z,35.13
2022-12-15T02:15:52.506Z,32.90
2022-12-15T02:16:31.247Z,32.97
2022-12-15T02:17:35.165Z,37.22
2022-12-15T02:18:19.295Z,35.15
2022-12-15T02:19:08.764Z,35.83
2022-12-15T02:20:11.181Z,34.60
2022-12-15T02:21:10.031Z,32.40
2022-12-15T02:21:41.562Z,36.85
2022-12-15T02:22:13.062Z,36.58
2022-12-15T02:22:59.652Z,33.00
2022-12-15T02:24:10.768Z,33.80
2022-12-15T02:24:57.737Z,31.95
2022-12-15T02:25:44.331Z,36.67
2022-12-15T02:26:33.438Z,34.10
2022-12-15T02:27:11.544Z,42.63
2022-12-15T02:28:00.972Z,41.00
2022-12-15T02:29:13.283Z,54.17
2022-12-15T02:30:05.914Z,56.67
2022-12-15T02:31:36.080Z,53.13
2022-12-15T02:32:13.794Z,56.60
2022-12-15T02:32:57.410Z,56.30
2022-12-15T02:33:32.548Z,59.30
2022-12-15T02:34:16.326Z,65.15
2022-12-15T02:34:58.502Z,57.33
2022-12-15T02:35:41.046Z,60.50
2022-12-15T02:36:45.175Z,55.75
2022-12-15T02:37:29.142Z,53.63
2022-12-15T02:38:00.811Z,50.75
2022-12-15T02:38:38.783Z,50.38
2022-12-15T02:39:12.447Z,44.13
2022-12-15T02:39:44.543Z,45.00
2022-12-15T02:40:16.130Z,43.20
2022-12-15T02:40:47.714Z,38.70
2022-12-15T02:41:34.342Z,38.25
2022-12-15T02:42:06.006Z,39.28
2022-12-15T02:42:46.630Z,38.25
2022-12-15T02:43:18.224Z,35.40
2022-12-15T02:43:49.964Z,37.38
2022-12-15T02:44:30.561Z,34.50
2022-12-15T02:45:13.171Z,37.92
2022-12-15T02:46:09.095Z,34.67
2022-12-15T02:46:59.512Z,36.08
2022-12-15T02:48:09.042Z,32.78
2022-12-15T02:48:58.539Z,33.25
2022-12-15T02:49:30.070Z,34.33
2022-12-15T02:50:19.977Z,37.53
2022-12-15T02:51:00.694Z,33.65
2022-12-15T02:51:45.390Z,39.55
2022-12-15T02:52:35.350Z,36.03
2022-12-15T02:53:18.734Z,37.25
2022-12-15T02:53:55.947Z,38.17
2022-12-15T02:54:58.405Z,36.72
2022-12-15T02:55:50.274Z,38.13
2022-12-15T02:56:46.603Z,36.72
2022-12-15T02:57:25.543Z,34.38
2022-12-15T02:58:05.699Z,35.88
2022-12-15T02:58:47.367Z,36.47
2022-12-15T02:59:27.903Z,35.38
2022-12-15T03:00:06.270Z,34.75
2022-12-15T03:00:42.645Z,35.33
2022-12-15T03:01:31.972Z,39.00
2022-12-15T03:02:06.774Z,39.10
2022-12-15T03:02:44.003Z,42.03
2022-12-15T03:03:20.380Z,43.75
2022-12-15T03:03:53.063Z,46.28
2022-12-15T03:04:26.043Z,45.78
2022-12-15T03:04:58.854Z,45.60
2022-12-15T03:05:31.797Z,47.45
2022-12-15T03:06:04.881Z,48.47
2022-12-15T03:06:36.859Z,49.42
2022-12-15T03:07:10.113Z,57.08
2022-12-15T03:07:43.002Z,55.80
2022-12-15T03:08:14.663Z,55.53
2022-12-15T03:08:46.301Z,55.15
2022-12-15T03:09:17.894Z,54.08
2022-12-15T03:09:49.498Z,43.45
2022-12-15T03:10:24.400Z,44.78
2022-12-15T03:10:57.433Z,42.47
2022-12-15T03:11:29.386Z,42.67
2022-12-15T03:12:01.057Z,47.55
2022-12-15T03:12:32.830Z,48.42
2022-12-15T03:13:04.419Z,44.22
2022-12-15T03:13:36.033Z,45.00
2022-12-15T03:14:07.694Z,46.10
2022-12-15T03:14:39.262Z,47.38
2022-12-15T03:15:11.465Z,45.60
2022-12-15T03:15:43.904Z,48.40
2022-12-15T03:16:15.613Z,47.63
2022-12-15T03:16:47.256Z,47.30
2022-12-15T03:17:18.991Z,46.30
2022-12-15T03:17:50.650Z,48.33
2022-12-15T03:18:22.223Z,46.92
2022-12-15T03:18:53.839Z,47.83
2022-12-15T03:19:26.036Z,49.20
2022-12-15T03:19:57.699Z,48.25
2022-12-15T03:20:29.250Z,48.63
2022-12-15T03:21:00.901Z,47.83
2022-12-15T03:21:32.550Z,46.33
2022-12-15T03:22:04.395Z,43.88
2022-12-15T03:22:36.986Z,44.83
2022-12-15T03:23:08.659Z,46.78
2022-12-15T03:23:40.307Z,43.35
2022-12-15T03:24:12.073Z,44.78
2022-12-15T03:24:43.727Z,48.55
2022-12-15T03:25:15.396Z,46.80
2022-12-15T03:25:49.881Z,46.30
2022-12-15T03:26:21.822Z,45.65
2022-12-15T03:26:53.450Z,45.75
2022-12-15T03:27:25.096Z,43.50
2022-12-15T03:27:56.942Z,42.28
2022-12-15T03:28:28.844Z,42.47
2022-12-15T03:29:00.486Z,41.58
2022-12-15T03:29:32.034Z,37.05
2022-12-15T03:30:04.700Z,38.72
2022-12-15T03:30:36.290Z,36.28
2022-12-15T03:31:07.839Z,37.30
2022-12-15T03:31:39.425Z,40.28
2022-12-15T03:32:11.158Z,38.20
2022-12-15T03:32:42.777Z,36.78
2022-12-15T03:33:14.423Z,39.13
2022-12-15T03:33:46.059Z,37.92
2022-12-15T03:34:18.067Z,38.40
2022-12-15T03:34:49.664Z,39.13
2022-12-15T03:35:21.386Z,38.58
2022-12-15T03:35:52.950Z,37.40
2022-12-15T03:36:24.562Z,35.15
2022-12-15T03:36:56.183Z,37.88
2022-12-15T03:37:28.028Z,34.83
2022-12-15T03:37:59.671Z,34.53
2022-12-15T03:38:31.330Z,37.92
2022-12-15T03:39:04.138Z,39.67
2022-12-15T03:39:35.699Z,39.35
2022-12-15T03:40:08.184Z,39.47
2022-12-15T03:40:39.906Z,38.90
2022-12-15T03:41:11.472Z,40.53
2022-12-15T03:41:43.154Z,38.55
2022-12-15T03:42:14.739Z,40.05
2022-12-15T03:42:49.212Z,36.83
2022-12-15T03:43:20.781Z,38.50
2022-12-15T03:43:52.370Z,39.03
2022-12-15T03:44:24.121Z,37.63
2022-12-15T03:44:55.702Z,39.22
2022-12-15T03:45:28.762Z,37.45
2022-12-15T03:46:00.593Z,39.28
2022-12-15T03:46:32.196Z,37.90
2022-12-15T03:47:04.144Z,37.40
2022-12-15T03:47:35.746Z,37.72
2022-12-15T03:48:07.312Z,40.30
2022-12-15T03:48:38.877Z,38.00
2022-12-15T03:49:10.453Z,36.00
2022-12-15T03:49:41.999Z,39.95
2022-12-15T03:50:16.225Z,34.92
2022-12-15T03:50:48.201Z,37.78
2022-12-15T03:51:20.496Z,35.45
2022-12-15T03:51:52.337Z,37.53
2022-12-15T03:52:23.954Z,37.20
2022-12-15T03:52:58.126Z,37.92
2022-12-15T03:53:29.983Z,36.65
2022-12-15T03:54:01.834Z,35.58
2022-12-15T03:54:33.432Z,38.03
2022-12-15T03:55:06.066Z,38.28
2022-12-15T03:55:37.624Z,37.13
2022-12-15T03:56:09.209Z,35.92
2022-12-15T03:56:40.830Z,36.33
2022-12-15T03:57:12.392Z,36.97
2022-12-15T03:57:44.014Z,38.55
2022-12-15T03:58:15.595Z,36.55
2022-12-15T03:58:47.214Z,38.22
2022-12-15T03:59:18.762Z,38.83
2022-12-15T03:59:50.336Z,39.08
2022-12-15T04:00:23.344Z,40.85
2022-12-15T04:00:55.866Z,38.97
2022-12-15T04:01:30.413Z,35.42
2022-12-15T04:02:02.330Z,37.33
2022-12-15T04:02:34.364Z,39.20
2022-12-15T04:03:06.216Z,39.10
2022-12-15T04:03:37.943Z,37.78
2022-12-15T04:04:09.872Z,38.00
2022-12-15T04:04:41.506Z,38.35
2022-12-15T04:05:28.516Z,37.45
2022-12-15T04:06:00.089Z,37.85
2022-12-15T04:06:31.997Z,38.35
2022-12-15T04:07:03.677Z,34.25
2022-12-15T04:07:35.253Z,37.53
2022-12-15T04:08:07.034Z,36.75
2022-12-15T04:08:38.726Z,38.08
2022-12-15T04:09:10.298Z,34.83
2022-12-15T04:09:41.833Z,33.78
2022-12-15T04:10:13.463Z,34.58
2022-12-15T04:10:45.091Z,35.25
2022-12-15T04:11:17.353Z,37.88
2022-12-15T04:11:48.946Z,38.13
2022-12-15T04:12:20.538Z,38.75
2022-12-15T04:13:06.543Z,39.88
2022-12-15T04:13:38.146Z,39.38
2022-12-15T04:14:10.222Z,37.88
2022-12-15T04:14:42.634Z,36.92
2022-12-15T04:15:14.889Z,39.05
2022-12-15T04:15:46.476Z,34.40
2022-12-15T04:16:20.407Z,36.67
2022-12-15T04:16:52.267Z,39.08
2022-12-15T04:17:23.954Z,38.97
2022-12-15T04:17:55.587Z,41.25
2022-12-15T04:18:27.182Z,43.33
2022-12-15T04:19:17.517Z,43.10
2022-12-15T04:20:07.883Z,41.72
2022-12-15T04:20:40.711Z,47.67
2022-12-15T04:21:12.606Z,36.13
2022-12-15T04:21:44.205Z,43.08
2022-12-15T04:22:18.109Z,42.60
2022-12-15T04:22:50.918Z,39.65
2022-12-15T04:23:22.669Z,38.22
2022-12-15T04:24:12.782Z,37.05
2022-12-15T04:25:02.603Z,37.22
2022-12-15T04:25:54.094Z,37.20
2022-12-15T04:26:43.956Z,37.92
2022-12-15T04:27:34.326Z,36.92
2022-12-15T04:28:25.655Z,37.50
2022-12-15T04:29:15.546Z,34.38
2022-12-15T04:30:05.435Z,37.08
2022-12-15T04:30:56.810Z,39.22
2022-12-15T04:31:49.936Z,34.97
2022-12-15T04:32:40.290Z,37.60
2022-12-15T04:33:31.165Z,36.47
2022-12-15T04:34:25.284Z,39.67
2022-12-15T04:35:15.261Z,42.08
2022-12-15T04:36:06.632Z,43.30
2022-12-15T04:36:59.527Z,44.83
2022-12-15T04:37:49.474Z,46.03
2022-12-15T04:38:49.856Z,55.13
2022-12-15T04:39:41.013Z,53.85
2022-12-15T04:40:31.322Z,51.78
2022-12-15T04:41:21.496Z,52.40
2022-12-15T04:42:13.974Z,52.83
2022-12-15T04:43:06.264Z,53.28
2022-12-15T04:43:56.611Z,54.97
2022-12-15T04:44:50.167Z,49.08
2022-12-15T04:45:43.809Z,43.75
2022-12-15T04:46:33.737Z,46.13
2022-12-15T04:47:23.872Z,48.13
2022-12-15T04:48:14.019Z,51.22
2022-12-15T04:49:03.937Z,49.95
2022-12-15T04:49:54.282Z,47.22
2022-12-15T04:50:44.110Z,45.05
2022-12-15T04:51:34.219Z,45.25
2022-12-15T04:52:24.058Z,47.22
2022-12-15T04:53:14.414Z,48.00
2022-12-15T04:54:04.703Z,49.58
2022-12-15T04:54:54.601Z,50.67
2022-12-15T04:55:44.807Z,51.00
2022-12-15T04:56:35.104Z,51.92
2022-12-15T04:57:25.437Z,59.10
2022-12-15T04:58:15.248Z,65.80
2022-12-15T04:59:06.087Z,67.82
2022-12-15T04:59:56.374Z,70.30
2022-12-15T05:00:46.276Z,75.18
2022-12-15T05:01:36.258Z,70.07
2022-12-15T05:02:26.621Z,58.63
2022-12-15T05:03:25.930Z,58.47
2022-12-15T05:04:15.904Z,51.60
2022-12-15T05:05:06.039Z,54.70
2022-12-15T05:05:56.019Z,52.80
2022-12-15T05:06:46.514Z,47.97
2022-12-15T05:07:36.912Z,42.38
2022-12-15T05:08:26.722Z,47.47
2022-12-15T05:09:16.583Z,47.88
2022-12-15T05:10:12.694Z,48.08
2022-12-15T05:11:04.998Z,46.58
2022-12-15T05:11:55.260Z,45.95
2022-12-15T05:12:45.655Z,46.55
2022-12-15T05:13:35.561Z,47.13
2022-12-15T05:14:26.072Z,48.38
2022-12-15T05:15:16.047Z,50.47
2022-12-15T05:16:06.072Z,45.67
2022-12-15T05:16:56.222Z,46.45
2022-12-15T05:17:46.646Z,47.85
2022-12-15T05:18:37.082Z,46.30
2022-12-15T05:19:26.909Z,55.22
2022-12-15T05:20:16.782Z,57.72
2022-12-15T05:21:07.286Z,65.75
2022-12-15T05:21:57.135Z,72.78
2022-12-15T05:22:47.029Z,92.93
2022-12-15T05:23:37.264Z,90.28
2022-12-15T05:24:27.228Z,81.45
2022-12-15T05:25:17.628Z,81.82
2022-12-15T05:26:07.622Z,76.22
2022-12-15T05:26:57.525Z,79.97
2022-12-15T05:27:47.375Z,78.63
2022-12-15T05:28:37.259Z,70.60
2022-12-15T05:29:27.155Z,63.00
2022-12-15T05:30:16.994Z,61.78
2022-12-15T05:31:06.961Z,58.67
2022-12-15T05:31:52.037Z,70.40
2022-12-15T05:32:23.846Z,58.75
2022-12-15T05:32:55.458Z,64.50
2022-12-15T05:33:27.095Z,66.57
2022-12-15T05:34:04.729Z,63.70
2022-12-15T05:34:38.183Z,57.38
2022-12-15T05:35:09.773Z,66.88
2022-12-15T05:35:41.466Z,69.18
2022-12-15T05:36:13.007Z,67.13
2022-12-15T05:36:44.627Z,67.72
2022-12-15T05:37:16.207Z,65.85
2022-12-15T05:37:47.751Z,64.45
2022-12-15T05:38:19.304Z,66.57
2022-12-15T05:38:52.251Z,67.18
2022-12-15T05:39:25.098Z,69.82
2022-12-15T05:39:56.694Z,70.32
2022-12-15T05:40:28.258Z,61.50
2022-12-15T05:41:00.472Z,63.13
2022-12-15T05:41:32.062Z,64.20
2022-12-15T05:42:04.176Z,67.13
2022-12-15T05:42:35.788Z,62.42
2022-12-15T05:43:07.337Z,67.13
2022-12-15T05:43:38.882Z,70.93
2022-12-15T05:44:10.847Z,69.40
2022-12-15T05:44:43.317Z,70.75
2022-12-15T05:45:15.096Z,70.32
2022-12-15T05:45:46.685Z,74.07
2022-12-15T05:46:18.323Z,69.07
2022-12-15T05:46:50.266Z,70.10
2022-12-15T05:47:21.973Z,60.10
2022-12-15T05:47:54.866Z,57.42
2022-12-15T05:48:27.262Z,58.78
2022-12-15T05:48:58.844Z,57.92
2022-12-15T05:49:30.628Z,57.17
2022-12-15T05:50:02.175Z,54.53
2022-12-15T05:50:33.816Z,55.65
2022-12-15T05:51:11.055Z,60.63
2022-12-15T05:51:45.109Z,61.55
2022-12-15T05:52:16.823Z,58.28
2022-12-15T05:52:49.882Z,61.20
2022-12-15T05:53:21.615Z,57.75
2022-12-15T05:53:53.243Z,57.58
2022-12-15T05:54:24.802Z,56.40
2022-12-15T05:54:56.421Z,54.75
2022-12-15T05:55:28.037Z,57.20
2022-12-15T05:56:07.672Z,57.25
2022-12-15T05:56:39.230Z,59.40
2022-12-15T05:57:10.854Z,60.28
2022-12-15T05:57:42.403Z,61.67
2022-12-15T05:58:13.954Z,59.70
2022-12-15T05:58:45.876Z,57.35
2022-12-15T05:59:19.131Z,54.50
2022-12-15T05:59:50.903Z,58.35
2022-12-15T06:00:23.078Z,57.17
2022-12-15T06:00:54.683Z,55.22
2022-12-15T06:01:27.540Z,55.00
2022-12-15T06:01:59.336Z,55.72
2022-12-15T06:02:30.981Z,55.45
2022-12-15T06:03:02.879Z,52.63
2022-12-15T06:03:34.950Z,52.85
2022-12-15T06:04:07.564Z,47.17
2022-12-15T06:04:39.217Z,51.60
2022-12-15T06:05:10.856Z,52.38
2022-12-15T06:05:42.494Z,55.60
2022-12-15T06:06:14.153Z,54.45
2022-12-15T06:06:45.790Z,56.53
2022-12-15T06:07:17.398Z,52.00
2022-12-15T06:07:49.054Z,53.10
2022-12-15T06:08:20.622Z,52.67
2022-12-15T06:08:52.285Z,50.83
2022-12-15T06:09:23.883Z,53.78
2022-12-15T06:09:55.478Z,52.83
2022-12-15T06:10:27.493Z,50.72
2022-12-15T06:10:59.678Z,51.22
2022-12-15T06:11:31.229Z,51.67
2022-12-15T06:12:02.858Z,55.13
2022-12-15T06:12:34.439Z,49.20
2022-12-15T06:13:05.988Z,53.17
2022-12-15T06:13:37.614Z,51.92
2022-12-15T06:14:09.678Z,63.78
2022-12-15T06:14:41.265Z,59.65
2022-12-15T06:15:12.834Z,50.47
2022-12-15T06:15:44.459Z,56.25
2022-12-15T06:16:18.720Z,62.28
2022-12-15T06:16:51.697Z,53.75
2022-12-15T06:17:23.485Z,61.28
2022-12-15T06:17:55.954Z,55.88
2022-12-15T06:18:32.985Z,54.88
2022-12-15T06:19:04.618Z,53.25
2022-12-15T06:19:36.202Z,58.90
2022-12-15T06:20:08.172Z,60.05
2022-12-15T06:20:39.764Z,57.10
2022-12-15T06:21:14.205Z,54.95
2022-12-15T06:21:45.751Z,60.72
2022-12-15T06:22:17.325Z,57.95
2022-12-15T06:22:50.204Z,58.03
2022-12-15T06:23:21.916Z,60.60
2022-12-15T06:23:55.082Z,59.70
2022-12-15T06:24:26.745Z,59.80
2022-12-15T06:24:58.356Z,57.20
2022-12-15T06:25:29.942Z,62.97
2022-12-15T06:26:17.425Z,58.60
2022-12-15T06:26:49.843Z,57.28
2022-12-15T06:27:21.701Z,56.40
2022-12-15T06:27:58.362Z,58.80
2022-12-15T06:28:33.074Z,52.53
2022-12-15T06:29:08.574Z,57.08
2022-12-15T06:29:40.319Z,55.17
2022-12-15T06:30:12.338Z,59.20
2022-12-15T06:30:43.900Z,57.35
2022-12-15T06:31:17.800Z,57.00
2022-12-15T06:31:49.555Z,59.20
2022-12-15T06:32:21.415Z,58.17
2022-12-15T06:32:54.931Z,54.88
2022-12-15T06:33:28.967Z,54.72
2022-12-15T06:34:04.279Z,57.42
2022-12-15T06:34:35.906Z,60.95
2022-12-15T06:35:07.905Z,55.50
2022-12-15T06:35:39.489Z,54.92
2022-12-15T06:36:15.022Z,58.45
2022-12-15T06:36:46.681Z,58.30
2022-12-15T06:37:18.273Z,56.72
2022-12-15T06:37:49.895Z,60.25
2022-12-15T06:38:21.578Z,56.42
2022-12-15T06:38:53.120Z,55.65
2022-12-15T06:39:24.694Z,59.42
2022-12-15T06:39:56.300Z,59.03
2022-12-15T06:40:27.848Z,62.80
2022-12-15T06:41:01.158Z,59.85
2022-12-15T06:41:33.175Z,59.25
2022-12-15T06:42:04.832Z,57.78
2022-12-15T06:42:36.387Z,62.38
2022-12-15T06:43:08.244Z,56.58
2022-12-15T06:43:39.883Z,60.63
2022-12-15T06:44:16.128Z,60.30
2022-12-15T06:44:47.684Z,61.40
2022-12-15T06:45:21.562Z,65.28
2022-12-15T06:45:53.163Z,62.03
2022-12-15T06:46:26.962Z,60.63
2022-12-15T06:46:58.687Z,59.85
2022-12-15T06:47:30.322Z,54.45
2022-12-15T06:48:02.024Z,58.65
2022-12-15T06:48:33.672Z,57.00
2022-12-15T06:49:05.383Z,58.78
2022-12-15T06:49:36.926Z,58.58
2022-12-15T06:50:08.917Z,59.05
2022-12-15T06:50:41.518Z,59.50
2022-12-15T06:51:17.012Z,55.90
2022-12-15T06:51:49.998Z,63.00
2022-12-15T06:52:21.577Z,64.25
2022-12-15T06:52:53.185Z,77.45
2022-12-15T06:53:24.757Z,77.15
2022-12-15T06:53:56.913Z,86.43
2022-12-15T06:54:28.484Z,80.38
2022-12-15T06:55:00.079Z,101.72
2022-12-15T06:55:32.121Z,128.48
2022-12-15T06:56:07.211Z,217.18
2022-12-15T06:56:39.170Z,126.28
2022-12-15T06:57:10.878Z,233.30
2022-12-15T06:57:42.471Z,284.60
2022-12-15T06:58:14.852Z,232.90
2022-12-15T06:58:50.438Z,193.70
2022-12-15T06:59:22.056Z,202.40
2022-12-15T06:59:53.659Z,176.80
2022-12-15T07:00:25.317Z,197.60
2022-12-15T07:00:57.096Z,199.60
2022-12-15T07:01:29.491Z,197.30
2022-12-15T07:02:01.311Z,174.95
2022-12-15T07:02:33.168Z,176.50
2022-12-15T07:03:07.760Z,174.73
2022-12-15T07:03:40.208Z,168.80
2022-12-15T07:04:12.469Z,163.70
2022-12-15T07:04:44.319Z,170.20
2022-12-15T07:05:16.149Z,168.77
2022-12-15T07:05:48.072Z,175.27
2022-12-15T07:06:19.895Z,169.68
2022-12-15T07:06:51.485Z,166.10
2022-12-15T07:07:23.080Z,164.48
2022-12-15T07:07:54.664Z,159.68
2022-12-15T07:08:30.897Z,169.40
2022-12-15T07:09:10.501Z,160.60
2022-12-15T07:09:42.162Z,158.32
2022-12-15T07:10:14.074Z,125.93
2022-12-15T07:10:45.655Z,119.60
2022-12-15T07:11:17.239Z,118.97
2022-12-15T07:11:51.349Z,115.53
2022-12-15T07:12:22.946Z,112.90
2022-12-15T07:12:56.775Z,101.93
2022-12-15T07:13:28.705Z,92.82
2022-12-15T07:14:00.613Z,106.15
2022-12-15T07:14:32.189Z,101.55
2022-12-15T07:15:04.107Z,87.50
2022-12-15T07:15:35.881Z,80.45
2022-12-15T07:16:08.105Z,75.35
2022-12-15T07:16:41.113Z,66.28
2022-12-15T07:17:12.898Z,66.78
2022-12-15T07:17:44.476Z,60.60
2022-12-15T07:18:17.447Z,60.80
2022-12-15T07:18:49.846Z,62.58
2022-12-15T07:19:21.475Z,74.05
2022-12-15T07:19:53.084Z,72.88
2022-12-15T07:20:28.760Z,90.95
2022-12-15T07:21:09.442Z,80.70
2022-12-15T07:21:41.632Z,86.88
2022-12-15T07:22:13.366Z,78.75
2022-12-15T07:22:50.590Z,84.88
2022-12-15T07:23:39.728Z,82.60
2022-12-15T07:24:14.023Z,80.28
2022-12-15T07:24:46.051Z,73.88
2022-12-15T07:25:18.828Z,67.72
2022-12-15T07:25:50.427Z,63.58
2022-12-15T07:26:22.334Z,62.63
2022-12-15T07:26:54.011Z,59.50
2022-12-15T07:27:25.891Z,61.13
2022-12-15T07:27:57.443Z,60.60
2022-12-15T07:28:29.241Z,63.08
2022-12-15T07:29:01.103Z,61.90
2022-12-15T07:29:32.763Z,65.68
2022-12-15T07:30:04.881Z,63.58
2022-12-15T07:30:38.874Z,61.60
2022-12-15T07:31:15.712Z,64.50
2022-12-15T07:31:47.593Z,61.70
2022-12-15T07:32:19.667Z,62.47
2022-12-15T07:32:51.625Z,58.08
2022-12-15T07:33:23.173Z,59.63
2022-12-15T07:33:55.092Z,58.15
2022-12-15T07:34:26.781Z,58.30
2022-12-15T07:34:58.410Z,50.13
2022-12-15T07:35:30.643Z,55.75
2022-12-15T07:36:03.278Z,55.33
2022-12-15T07:36:34.936Z,53.42
2022-12-15T07:37:06.538Z,49.97
2022-12-15T07:37:38.152Z,50.53
2022-12-15T07:38:09.708Z,48.47
2022-12-15T07:38:41.350Z,50.70
2022-12-15T07:39:12.925Z,49.30
2022-12-15T07:39:44.627Z,47.72
2022-12-15T07:40:16.579Z,48.50
2022-12-15T07:40:49.190Z,52.13
2022-12-15T07:41:21.072Z,48.85
2022-12-15T07:41:52.783Z,49.88
2022-12-15T07:42:24.404Z,51.65
2022-12-15T07:42:55.944Z,51.28
2022-12-15T07:43:29.243Z,51.13
2022-12-15T07:44:02.407Z,51.33
2022-12-15T07:44:33.984Z,51.78
2022-12-15T07:45:07.047Z,52.60
2022-12-15T07:45:38.702Z,49.40
2022-12-15T07:46:10.370Z,52.65
2022-12-15T07:46:46.840Z,53.00
2022-12-15T07:47:18.495Z,49.65
2022-12-15T07:47:51.171Z,51.28
2022-12-15T07:48:23.914Z,51.30
2022-12-15T07:48:55.473Z,51.70
2022-12-15T07:49:27.067Z,50.38
2022-12-15T07:49:58.667Z,54.17
2022-12-15T07:50:30.366Z,53.17
2022-12-15T07:51:10.896Z,53.10
2022-12-15T07:51:45.031Z,52.28
2022-12-15T07:52:17.152Z,50.25
2022-12-15T07:52:50.792Z,49.80
2022-12-15T07:53:22.377Z,54.13
2022-12-15T07:53:53.969Z,53.15
2022-12-15T07:54:25.874Z,53.88
2022-12-15T07:54:57.501Z,52.40
2022-12-15T07:55:57.130Z,49.92
2022-12-15T07:56:21.168Z,51.13
2022-12-15T07:56:53.159Z,47.63
2022-12-15T07:57:24.929Z,50.03
2022-12-15T07:57:56.540Z,51.42
2022-12-15T07:58:28.712Z,51.28
2022-12-15T07:59:00.277Z,50.78
2022-12-15T07:59:31.834Z,52.88
2022-12-15T08:00:05.914Z,51.63
2022-12-15T08:00:37.550Z,56.70
2022-12-15T08:01:12.749Z,53.10
2022-12-15T08:01:44.488Z,53.45
2022-12-15T08:02:16.623Z,57.50
2022-12-15T08:02:50.108Z,55.60
2022-12-15T08:03:22.306Z,51.70
2022-12-15T08:03:54.090Z,55.50
2022-12-15T08:04:25.771Z,51.58
2022-12-15T08:04:57.494Z,56.22
2022-12-15T08:05:29.160Z,53.78
2022-12-15T08:06:13.072Z,47.67
2022-12-15T08:06:45.106Z,51.30
2022-12-15T08:07:17.356Z,50.13
2022-12-15T08:07:48.993Z,49.78